Time;durP1;ratioP1;P1;durP2;ratioP2;P2;SDS_P1;SDS_P2;PMS_P1;PMS_P2;Temp;Humidity;BMP_temperature;BMP_pressure;BME280_temperature;BME280_humidity;BME280_pressure;Samples;Min_cycle;Max_cycle;Signal;HPM_P1;HPM_P2
2022/10/13 00:01:23;;;;;;;21.80;11.05;;;;;;;5.41;77.16;101631.69;7397438;19;20019;-65
2022/10/13 00:03:52;;;;;;;23.73;11.25;;;;;;;5.39;77.21;101626.44;7399983;19;20074;-65
2022/10/13 00:06:26;;;;;;;18.27;10.40;;;;;;;5.37;77.28;101628.16;7397610;19;20086;-65
2022/10/13 00:08:55;;;;;;;26.45;11.55;;;;;;;5.34;77.23;101630.69;7398479;19;20018;-65
2022/10/13 00:11:26;;;;;;;22.48;10.90;;;;;;;5.31;77.38;101628.06;7397420;19;20030;-65
2022/10/13 00:13:58;;;;;;;20.27;10.10;;;;;;;5.28;77.39;101625.44;7398607;19;20459;-65
2022/10/13 00:16:27;;;;;;;19.17;10.07;;;;;;;5.24;77.54;101620.16;7399552;19;20022;-65
2022/10/13 00:18:56;;;;;;;21.33;10.10;;;;;;;5.24;77.49;101622.75;7395125;19;20486;-65
2022/10/13 00:21:29;;;;;;;20.55;9.38;;;;;;;5.22;77.58;101618.41;7397038;19;20023;-65
2022/10/13 00:23:58;;;;;;;14.45;9.77;;;;;;;5.20;77.64;101612.28;7399374;19;20085;-66
2022/10/13 00:26:28;;;;;;;21.55;10.68;;;;;;;5.18;77.78;101613.13;7397837;19;20014;-66
2022/10/13 00:28:57;;;;;;;20.85;10.32;;;;;;;5.19;77.77;101614.88;7398175;19;20481;-65
2022/10/13 00:31:27;;;;;;;17.80;9.43;;;;;;;5.17;77.88;101609.66;7395557;19;20061;-66
2022/10/13 00:33:56;;;;;;;17.35;10.15;;;;;;;5.16;77.72;101612.25;7395769;19;20018;-66
2022/10/13 00:36:30;;;;;;;15.30;10.32;;;;;;;5.15;77.89;101613.09;7396272;19;20070;-66
2022/10/13 00:38:58;;;;;;;17.40;9.57;;;;;;;5.13;78.00;101612.19;7398197;19;20081;-66
2022/10/13 00:41:27;;;;;;;19.17;9.15;;;;;;;5.12;77.89;101605.22;7396658;19;20449;-66
2022/10/13 00:43:59;;;;;;;17.50;9.15;;;;;;;5.10;77.94;101609.56;7395880;19;20035;-66
2022/10/13 00:46:30;;;;;;;14.60;8.82;;;;;;;5.10;78.21;101612.16;7394108;19;20348;-66
2022/10/13 00:49:01;;;;;;;15.13;8.45;;;;;;;5.06;78.15;101609.47;7396654;19;20417;-66
2022/10/13 00:51:36;;;;;;;19.17;8.80;;;;;;;5.05;78.05;101605.16;7398658;19;20010;-66
2022/10/13 00:54:07;;;;;;;13.57;8.68;;;;;;;5.03;78.27;101601.66;7398411;19;20018;-66
2022/10/13 00:56:38;;;;;;;16.40;9.50;;;;;;;5.02;78.15;101599.91;7398253;19;20075;-66
2022/10/13 00:59:17;;;;;;;14.00;9.60;;;;;;;5.02;78.16;101599.91;7395511;19;20031;-66
2022/10/13 01:01:46;;;;;;;15.18;10.18;;;;;;;5.02;78.09;101596.44;7397789;19;20499;-66
2022/10/13 01:04:14;;;;;;;16.27;9.27;;;;;;;5.01;78.25;101598.13;7397644;19;20011;-66
2022/10/13 01:06:46;;;;;;;16.13;9.10;;;;;;;5.02;78.28;101597.28;7396786;19;20078;-66
2022/10/13 01:09:15;;;;;;;15.68;9.93;;;;;;;5.03;78.46;101592.94;7393335;19;20485;-67
2022/10/13 01:11:58;;;;;;;16.60;9.18;;;;;;;5.04;78.38;101593.00;7394193;19;20078;-67
2022/10/13 01:14:34;;;;;;;16.05;9.50;;;;;;;5.05;78.28;101596.47;7395167;19;20070;-67
2022/10/13 01:17:11;;;;;;;15.48;8.27;;;;;;;5.04;78.34;101595.59;7394344;19;20078;-67
2022/10/13 01:20:02;;;;;;;13.80;8.90;;;;;;;5.04;78.57;101593.00;7392923;19;20078;-67
2022/10/13 01:22:47;;;;;;;18.40;9.18;;;;;;;5.04;78.28;101597.31;7393107;19;20014;-67
2022/10/13 01:25:34;;;;;;;18.20;9.52;;;;;;;5.04;78.55;101594.72;7393933;19;20022;-67
2022/10/13 01:28:28;;;;;;;14.30;9.05;;;;;;;5.02;78.41;101588.63;7393401;19;20073;-69
2022/10/13 01:31:07;;;;;;;15.35;9.00;;;;;;;5.01;78.55;101584.28;7398373;19;20086;-68
2022/10/13 01:33:44;;;;;;;12.85;8.73;;;;;;;4.99;78.35;101579.06;7401154;19;20021;-68
2022/10/13 01:36:24;;;;;;;14.63;7.93;;;;;;;4.98;78.30;101576.41;7401252;19;20351;-67
2022/10/13 01:38:57;;;;;;;16.17;8.98;;;;;;;4.94;78.63;101569.41;7401149;19;20077;-67
2022/10/13 01:41:32;;;;;;;12.48;8.18;;;;;;;4.93;78.21;101570.25;7400211;19;20014;-68
2022/10/13 01:44:07;;;;;;;14.90;9.15;;;;;;;4.90;78.41;101568.50;7401257;19;20101;-66
2022/10/13 01:46:46;;;;;;;14.75;8.82;;;;;;;4.90;78.60;101573.69;7397999;19;20382;-65
2022/10/13 01:49:18;;;;;;;14.48;7.60;;;;;;;4.87;78.60;101565.88;7400786;19;20015;-66
2022/10/13 01:51:48;;;;;;;17.15;8.80;;;;;;;4.85;78.69;101571.06;7398492;19;20082;-67
2022/10/13 01:54:17;;;;;;;12.85;7.93;;;;;;;4.83;78.71;101577.09;7400028;19;20010;-66
2022/10/13 01:56:54;;;;;;;16.27;8.82;;;;;;;4.80;78.86;101566.63;7397746;19;20095;-66
2022/10/13 01:59:25;;;;;;;14.18;8.90;;;;;;;4.77;78.75;101564.84;7399409;19;20577;-66
2022/10/13 02:02:05;;;;;;;13.98;8.95;;;;;;;4.76;79.10;101567.44;7399891;19;20671;-66
2022/10/13 02:04:51;;;;;;;13.25;8.63;;;;;;;4.73;79.02;101563.06;7400376;19;20082;-67
2022/10/13 02:07:22;;;;;;;14.75;8.85;;;;;;;4.72;79.12;101566.50;7397369;19;20021;-67
2022/10/13 02:09:59;;;;;;;13.02;9.00;;;;;;;4.71;79.18;101564.75;7399072;19;20022;-68
2022/10/13 02:12:32;;;;;;;14.93;8.77;;;;;;;4.68;79.15;101562.97;7399504;19;20018;-67
2022/10/13 02:15:02;;;;;;;15.07;9.77;;;;;;;4.67;79.11;101560.34;7400550;19;20016;-68
2022/10/13 02:17:33;;;;;;;10.95;7.25;;;;;;;4.65;79.01;101554.25;7399403;19;20011;-67
2022/10/13 02:20:02;;;;;;;10.35;6.80;;;;;;;4.62;79.10;101554.22;7398763;19;20078;-68
2022/10/13 02:22:36;;;;;;;15.70;8.38;;;;;;;4.62;79.22;101547.28;7399744;19;20085;-69
2022/10/13 02:25:04;;;;;;;;;;;;;;;4.62;79.33;101536.88;7400763;19;20466;-68
2022/10/13 02:27:33;;;;;;;10.48;7.13;;;;;;;4.61;78.90;101540.31;7396855;19;19923;-68
2022/10/13 02:30:02;;;;;;;12.75;8.27;;;;;;;4.61;78.92;101536.88;7398205;19;20023;-68
2022/10/13 02:32:40;;;;;;;17.52;8.68;;;;;;;4.59;79.07;101539.44;7396687;19;20507;-69
2022/10/13 02:35:09;;;;;;;14.27;8.32;;;;;;;4.59;79.18;101538.56;7398688;19;20045;-70
2022/10/13 02:37:38;;;;;;;15.68;8.82;;;;;;;4.57;79.17;101526.44;7398237;19;20517;-69
2022/10/13 02:40:07;;;;;;;15.27;8.48;;;;;;;4.56;79.30;101523.78;7396309;19;20078;-70
2022/10/13 02:42:36;;;;;;;12.55;8.15;;;;;;;4.55;79.28;101522.06;7397837;19;20021;-70
2022/10/13 02:45:05;;;;;;;16.75;8.32;;;;;;;4.54;79.59;101518.56;7397783;19;20430;-70
2022/10/13 02:47:34;;;;;;;12.45;8.35;;;;;;;4.53;79.48;101521.16;7397259;19;20078;-68
2022/10/13 02:50:05;;;;;;;14.18;7.93;;;;;;;4.50;79.49;101515.88;7396344;19;20035;-69
2022/10/13 02:52:34;;;;;;;12.35;8.27;;;;;;;4.49;79.64;101525.44;7397078;19;20078;-69
2022/10/13 02:55:02;;;;;;;11.27;7.43;;;;;;;4.48;79.65;101512.41;7398321;19;20070;-69
2022/10/13 02:57:31;;;;;;;13.65;7.53;;;;;;;4.47;79.63;101510.66;7398012;19;20078;-69
2022/10/13 02:59:59;;;;;;;11.10;7.82;;;;;;;4.45;79.91;101508.03;7395919;19;20078;-69
2022/10/13 03:02:28;;;;;;;14.32;8.00;;;;;;;4.43;79.77;101504.53;7398338;19;20073;-69
2022/10/13 03:04:57;;;;;;;16.50;8.13;;;;;;;4.42;79.95;101509.72;7397861;19;20062;-69
2022/10/13 03:07:28;;;;;;;13.43;8.68;;;;;;;4.41;80.01;101503.66;7395767;19;20502;-69
2022/10/13 03:09:56;;;;;;;13.43;7.45;;;;;;;4.40;80.10;101505.38;7396409;19;20081;-69
2022/10/13 03:12:25;;;;;;;17.08;8.27;;;;;;;4.37;79.88;101505.31;7397761;19;20035;-69
2022/10/13 03:14:53;;;;;;;11.35;7.57;;;;;;;4.35;79.95;101495.75;7397559;19;20078;-69
2022/10/13 03:17:22;;;;;;;12.23;7.97;;;;;;;4.35;79.83;101500.97;7397020;19;20085;-69
2022/10/13 03:19:50;;;;;;;11.93;7.28;;;;;;;4.33;80.19;101503.50;7396545;19;20019;-68
2022/10/13 03:22:18;;;;;;;12.88;7.90;;;;;;;4.32;80.08;101503.50;7397365;19;20078;-69
2022/10/13 03:24:50;;;;;;;13.18;6.97;;;;;;;4.31;80.13;101506.94;7396880;19;20078;-69
2022/10/13 03:27:19;;;;;;;12.95;6.88;;;;;;;4.30;80.30;101500.88;7395688;19;20091;-69
2022/10/13 03:29:48;;;;;;;10.75;7.20;;;;;;;4.28;80.22;101499.97;7396630;19;20014;-69
2022/10/13 03:32:16;;;;;;;10.18;6.20;;;;;;;4.29;80.16;101499.13;7397117;19;20082;-68
2022/10/13 03:34:45;;;;;;;15.93;7.45;;;;;;;4.27;80.40;101493.00;7396592;19;20078;-69
2022/10/13 03:37:13;;;;;;;12.55;7.53;;;;;;;4.28;80.42;101496.50;7396337;19;20011;-69
2022/10/13 03:39:42;;;;;;;12.45;8.30;;;;;;;4.28;80.42;101493.91;7395251;19;20541;-69
2022/10/13 03:42:13;;;;;;;11.80;8.55;;;;;;;4.26;80.43;101488.69;7396038;19;20126;-69
2022/10/13 03:44:42;;;;;;;13.98;8.20;;;;;;;4.28;80.34;101489.56;7396186;19;20078;-69
2022/10/13 03:47:10;;;;;;;16.27;8.93;;;;;;;4.29;80.36;101486.13;7395278;19;20087;-69
2022/10/13 03:49:39;;;;;;;14.77;8.95;;;;;;;4.30;80.47;101495.69;7395408;19;20082;-68
2022/10/13 03:52:08;;;;;;;15.25;8.52;;;;;;;4.30;80.24;101482.69;7393869;19;20026;-69
2022/10/13 03:54:36;;;;;;;15.40;8.73;;;;;;;4.33;80.45;101487.91;7393308;19;20078;-69
2022/10/13 03:57:05;;;;;;;15.50;8.90;;;;;;;4.34;80.47;101487.06;7393713;19;20022;-69
2022/10/13 03:59:36;;;;;;;14.45;8.60;;;;;;;4.36;80.44;101493.19;7395298;19;20074;-69
2022/10/13 04:02:04;;;;;;;14.18;8.15;;;;;;;4.38;80.48;101485.41;7396026;19;20097;-69
2022/10/13 04:04:34;;;;;;;10.75;7.47;;;;;;;4.38;80.19;101482.81;7395329;19;20477;-69
2022/10/13 04:07:02;;;;;;;13.75;8.00;;;;;;;4.37;80.26;101481.06;7395399;19;20019;-68
2022/10/13 04:09:31;;;;;;;11.52;7.90;;;;;;;4.43;80.50;101472.50;7395571;19;20018;-69
2022/10/13 04:11:59;;;;;;;11.45;6.80;;;;;;;4.46;80.23;101480.31;7395153;19;20584;-69
2022/10/13 04:14:28;;;;;;;11.30;7.97;;;;;;;4.49;80.18;101480.38;7395842;19;20078;-69
2022/10/13 04:16:59;;;;;;;12.98;7.45;;;;;;;4.49;80.29;101485.59;7395428;19;20031;-68
2022/10/13 04:19:28;;;;;;;12.75;8.07;;;;;;;4.53;80.29;101484.78;7393558;19;20019;-70
2022/10/13 04:21:56;;;;;;;14.75;7.75;;;;;;;4.55;80.41;101477.88;7394523;19;20094;-70
2022/10/13 04:24:25;;;;;;;13.70;7.93;;;;;;;4.58;80.38;101477.91;7393544;19;20090;-69
2022/10/13 04:26:53;;;;;;;12.10;8.23;;;;;;;4.61;80.33;101471.88;7393943;19;20018;-70
2022/10/13 04:29:22;;;;;;;10.50;7.32;;;;;;;4.63;80.34;101471.06;7394478;19;20031;-69
2022/10/13 04:31:50;;;;;;;12.10;5.97;;;;;;;4.64;80.24;101472.81;7394801;19;20022;-71
2022/10/13 04:34:21;;;;;;;11.00;6.18;;;;;;;4.65;80.39;101471.06;7394301;19;20573;-70
2022/10/13 04:36:51;;;;;;;10.23;6.85;;;;;;;4.66;80.30;101465.03;7394562;19;20017;-69
2022/10/13 04:39:20;;;;;;;11.40;7.28;;;;;;;4.66;80.14;101476.31;7392192;19;20077;-69
2022/10/13 04:41:48;;;;;;;13.95;8.00;;;;;;;4.67;80.22;101470.25;7393832;19;20081;-69
2022/10/13 04:44:17;;;;;;;10.55;7.90;;;;;;;4.67;80.11;101465.03;7394596;19;20026;-69
2022/10/13 04:46:45;;;;;;;11.85;9.27;;;;;;;4.67;80.02;101471.97;7392985;19;20011;-70
2022/10/13 04:49:14;;;;;;;11.15;9.10;;;;;;;4.67;80.16;101464.19;7393907;19;20032;-70
2022/10/13 04:51:45;;;;;;;11.82;9.38;;;;;;;4.65;79.70;101465.88;7392118;19;20029;-69
2022/10/13 04:54:13;;;;;;;12.32;9.73;;;;;;;4.68;79.66;101468.53;7393364;19;20552;-69
2022/10/13 04:56:42;;;;;;;13.57;9.65;;;;;;;4.68;79.70;101466.78;7393728;19;20509;-70
2022/10/13 04:59:10;;;;;;;16.08;10.75;;;;;;;4.69;79.52;101459.88;7392212;19;20070;-69
2022/10/13 05:01:39;;;;;;;29.55;12.65;;;;;;;4.67;79.39;101462.44;7391236;19;20018;-68
2022/10/13 05:04:08;;;;;;;11.45;9.02;;;;;;;4.69;79.56;101465.09;7396446;19;20039;-68
2022/10/13 05:06:39;;;;;;;10.73;8.13;;;;;;;4.69;79.46;101457.28;7398351;19;20015;-70
2022/10/13 05:09:15;;;;;;;15.52;8.73;;;;;;;4.70;79.33;101457.31;7397828;19;20331;-68
2022/10/13 05:11:44;;;;;;;11.73;7.93;;;;;;;4.73;79.15;101449.53;7400709;19;20018;-69
2022/10/13 05:14:12;;;;;;;11.90;7.55;;;;;;;4.75;79.32;101446.94;7400442;19;20018;-68
2022/10/13 05:16:41;;;;;;;11.23;8.32;;;;;;;4.80;79.33;101449.63;7399437;19;20098;-69
2022/10/13 05:19:09;;;;;;;12.63;8.70;;;;;;;4.84;79.09;101443.59;7401154;19;20011;-68
2022/10/13 05:21:38;;;;;;;14.40;8.18;;;;;;;4.89;79.18;101450.63;7400971;19;20102;-69
2022/10/13 05:24:12;;;;;;;11.30;8.90;;;;;;;4.91;79.20;101440.22;7400702;19;20086;-69
2022/10/13 05:26:41;;;;;;;;;;;;;;;4.97;79.27;101449.84;7403396;19;20029;-70
2022/10/13 05:29:09;;;;;;;13.35;8.07;;;;;;;5.00;78.99;101448.13;7399080;19;19926;-69
2022/10/13 05:31:38;;;;;;;12.77;8.27;;;;;;;5.04;79.11;101442.16;7401027;19;20086;-69
2022/10/13 05:34:06;;;;;;;12.18;6.57;;;;;;;5.09;79.22;101451.72;7401456;19;20098;-69
2022/10/13 05:36:36;;;;;;;16.88;7.07;;;;;;;5.12;79.06;101444.84;7401508;19;20024;-69
2022/10/13 05:39:07;;;;;;;13.65;9.13;;;;;;;5.17;79.29;101452.72;7400843;19;20128;-69
2022/10/13 05:41:38;;;;;;;13.93;8.52;;;;;;;5.19;79.39;101446.66;7401513;19;20501;-70
2022/10/13 05:44:09;;;;;;;12.50;7.55;;;;;;;5.26;79.11;101451.91;7400966;19;20078;-69
2022/10/13 05:46:38;;;;;;;12.52;7.78;;;;;;;5.31;79.12;101452.88;7399406;19;20032;-69
2022/10/13 05:49:07;;;;;;;10.30;6.05;;;;;;;5.34;79.07;101453.75;7398323;19;20018;-69
2022/10/13 05:51:39;;;;;;;10.95;6.93;;;;;;;5.38;79.08;101447.75;7401131;19;20514;-67
2022/10/13 05:54:11;;;;;;;12.30;8.13;;;;;;;5.42;79.03;101445.16;7401068;19;20067;-69
2022/10/13 05:56:48;;;;;;;10.48;6.93;;;;;;;5.46;79.16;101444.31;7401390;19;20049;-69
2022/10/13 05:59:19;;;;;;;10.65;7.30;;;;;;;5.52;79.05;101450.50;7400278;19;20022;-69
2022/10/13 06:01:48;;;;;;;14.75;6.70;;;;;;;5.57;78.93;101453.13;7400621;19;20046;-68
2022/10/13 06:04:21;;;;;;;12.30;6.72;;;;;;;5.61;78.89;101452.31;7400461;19;20371;-70
2022/10/13 06:06:50;;;;;;;20.70;13.00;;;;;;;5.66;78.94;101453.25;7398516;19;20087;-69
2022/10/13 06:09:19;;;;;;;12.20;8.70;;;;;;;5.70;79.11;101452.41;7397511;19;20426;-69
2022/10/13 06:11:50;;;;;;;12.23;7.30;;;;;;;5.75;79.06;101447.25;7400474;19;20074;-69
2022/10/13 06:14:19;;;;;;;11.82;6.85;;;;;;;5.82;79.03;101448.16;7400095;19;20047;-69
2022/10/13 06:16:47;;;;;;;17.38;7.43;;;;;;;5.87;78.98;101446.47;7396834;19;20074;-69
2022/10/13 06:19:16;;;;;;;14.02;8.10;;;;;;;5.92;79.05;101444.78;7396629;19;20074;-69
2022/10/13 06:21:44;;;;;;;18.35;8.20;;;;;;;5.97;79.07;101437.03;7398774;19;20028;-68
2022/10/13 06:24:13;;;;;;;15.27;8.65;;;;;;;6.03;79.41;101443.19;7398844;19;20014;-69
2022/10/13 06:26:41;;;;;;;14.85;8.90;;;;;;;6.09;79.48;101444.09;7398716;19;20077;-69
2022/10/13 06:29:12;;;;;;;15.95;10.07;;;;;;;6.15;79.52;101446.75;7396741;19;20090;-68
2022/10/13 06:31:41;;;;;;;29.52;16.92;;;;;;;6.21;79.81;101452.00;7398615;19;20508;-69
2022/10/13 06:34:09;;;;;;;37.47;26.45;;;;;;;6.28;79.82;101450.31;7399064;19;20077;-70
2022/10/13 06:36:38;;;;;;;40.28;21.08;;;;;;;6.33;80.31;101454.72;7399237;19;20014;-69
2022/10/13 06:39:06;;;;;;;37.28;16.38;;;;;;;6.40;80.59;101457.34;7398550;19;20438;-69
2022/10/13 06:41:35;;;;;;;34.03;15.25;;;;;;;6.42;80.67;101448.69;7398587;19;20102;-69
2022/10/13 06:44:04;;;;;;;30.85;16.13;;;;;;;6.51;80.74;101459.16;7398742;19;20023;-69
2022/10/13 06:46:41;;;;;;;30.50;15.40;;;;;;;6.59;81.36;101447.91;7395898;19;20010;-69
2022/10/13 06:49:16;;;;;;;35.83;17.60;;;;;;;6.67;81.66;101447.09;7397003;19;20100;-69
2022/10/13 06:51:44;;;;;;;27.60;17.75;;;;;;;6.75;81.96;101438.44;7398626;19;20031;-69
2022/10/13 06:54:13;;;;;;;37.38;19.55;;;;;;;6.82;82.10;101440.22;7396526;19;20015;-69
2022/10/13 06:56:41;;;;;;;36.28;18.77;;;;;;;6.90;82.56;101442.84;7398233;19;20074;-69
2022/10/13 06:59:10;;;;;;;35.72;19.25;;;;;;;6.96;82.91;101438.56;7398158;19;20014;-71
2022/10/13 07:01:41;;;;;;;29.52;19.65;;;;;;;7.05;82.96;101436.84;7398490;19;20054;-70
2022/10/13 07:04:09;;;;;;;27.42;18.48;;;;;;;7.11;83.24;101431.66;7397182;19;20023;-70
2022/10/13 07:06:38;;;;;;;23.98;18.08;;;;;;;7.18;83.65;101433.41;7398334;19;20018;-70
2022/10/13 07:09:07;;;;;;;29.67;18.73;;;;;;;7.24;83.76;101433.44;7396453;19;20018;-70
2022/10/13 07:11:36;;;;;;;32.65;18.70;;;;;;;7.28;84.17;101426.47;7398199;19;20074;-69
2022/10/13 07:14:04;;;;;;;32.55;18.88;;;;;;;7.38;84.55;101430.88;7397917;19;20019;-70
2022/10/13 07:16:33;;;;;;;34.03;20.23;;;;;;;7.46;84.69;101430.88;7397397;19;20027;-70
2022/10/13 07:19:04;;;;;;;32.80;18.75;;;;;;;7.53;85.13;101427.38;7398036;19;20018;-72
2022/10/13 07:21:33;;;;;;;30.83;18.25;;;;;;;7.63;85.37;101423.06;7397910;19;20090;-70
2022/10/13 07:24:04;;;;;;;28.25;18.05;;;;;;;7.73;85.69;101421.34;7398378;19;20036;-70
2022/10/13 07:26:33;;;;;;;27.27;16.52;;;;;;;7.79;86.06;101409.16;7398751;19;20019;-71
2022/10/13 07:29:02;;;;;;;28.30;17.45;;;;;;;7.91;86.03;101416.13;7396611;19;20500;-71
2022/10/13 07:31:30;;;;;;;28.15;17.50;;;;;;;8.02;85.97;101407.41;7397844;19;20022;-71
2022/10/13 07:34:00;;;;;;;30.90;16.90;;;;;;;8.12;85.84;101410.00;7398414;19;20015;-71
2022/10/13 07:36:31;;;;;;;29.75;19.45;;;;;;;8.23;85.92;101406.53;7397717;19;20014;-70
2022/10/13 07:39:00;;;;;;;23.65;17.27;;;;;;;8.34;86.24;101401.28;7397633;19;20059;-71
2022/10/13 07:41:28;;;;;;;23.90;16.95;;;;;;;8.42;86.06;101402.13;7395263;19;20075;-70
2022/10/13 07:43:58;;;;;;;30.42;18.52;;;;;;;8.49;86.16;101403.88;7394443;19;20074;-70
2022/10/13 07:46:27;;;;;;;28.35;19.52;;;;;;;8.60;86.22;101404.72;7395483;19;20085;-70
2022/10/13 07:48:56;;;;;;;26.45;16.80;;;;;;;8.69;85.97;101405.59;7396259;19;20019;-70
2022/10/13 07:51:25;;;;;;;31.83;16.90;;;;;;;8.74;85.88;101411.66;7395996;19;20082;-70
2022/10/13 07:53:56;;;;;;;26.15;16.52;;;;;;;8.80;85.73;101404.66;7396818;19;20085;-70
2022/10/13 07:56:24;;;;;;;26.42;16.55;;;;;;;8.88;85.71;101407.25;7397411;19;20160;-71
2022/10/13 07:58:53;;;;;;;26.23;17.38;;;;;;;8.92;86.02;101403.75;7396457;19;20094;-69
2022/10/13 08:01:21;;;;;;;29.48;18.05;;;;;;;9.00;85.60;101401.09;7394967;19;20421;-71
2022/10/13 08:03:50;;;;;;;24.77;17.40;;;;;;;9.07;85.77;101402.81;7394511;19;20015;-71
2022/10/13 08:06:18;;;;;;;24.60;16.65;;;;;;;9.15;85.86;101394.03;7397307;19;20011;-69
2022/10/13 08:08:47;;;;;;;24.00;17.58;;;;;;;9.23;85.64;101394.88;7395608;19;20022;-70
2022/10/13 08:11:19;;;;;;;24.80;16.85;;;;;;;9.32;85.77;101391.34;7394590;19;20387;-70
2022/10/13 08:13:50;;;;;;;24.92;15.70;;;;;;;9.39;85.36;101386.03;7396095;19;20023;-70
2022/10/13 08:16:18;;;;;;;25.17;16.25;;;;;;;9.51;85.26;101392.09;7394528;19;20017;-70
2022/10/13 08:18:47;;;;;;;21.85;15.88;;;;;;;9.59;84.94;101387.63;7396217;19;20074;-69
2022/10/13 08:21:18;;;;;;;23.60;15.25;;;;;;;9.70;84.89;101385.81;7394209;19;20042;-70
2022/10/13 08:23:47;;;;;;;27.67;19.67;;;;;;;9.80;84.75;101383.13;7394243;19;20528;-70
2022/10/13 08:26:22;;;;;;;29.58;15.85;;;;;;;9.89;84.28;101383.91;7396134;19;20014;-69
2022/10/13 08:28:51;;;;;;;21.80;15.32;;;;;;;10.01;84.56;101382.06;7394592;19;20014;-68
2022/10/13 08:31:20;;;;;;;22.88;15.57;;;;;;;10.13;84.40;101381.09;7392903;19;20094;-69
2022/10/13 08:33:50;;;;;;;26.33;15.50;;;;;;;10.24;84.16;101389.72;7395083;19;20478;-70
2022/10/13 08:36:20;;;;;;;25.63;14.27;;;;;;;10.36;83.99;101389.63;7395068;19;20034;-70
2022/10/13 08:38:48;;;;;;;23.67;15.52;;;;;;;10.45;83.89;101382.53;7396674;19;20018;-70
2022/10/13 08:41:22;;;;;;;26.67;15.52;;;;;;;10.61;83.87;101388.50;7399930;19;20540;-71
2022/10/13 08:43:54;;;;;;;29.17;16.80;;;;;;;10.70;83.61;101378.75;7403321;19;20074;-71
2022/10/13 08:46:27;;;;;;;27.80;16.35;;;;;;;10.87;83.13;101386.41;7401275;19;21069;-70
2022/10/13 08:48:56;;;;;;;23.87;15.77;;;;;;;11.02;83.06;101374.84;7402691;19;20026;-71
2022/10/13 08:51:24;;;;;;;26.17;15.88;;;;;;;11.19;82.67;101379.84;7399665;19;20090;-70
2022/10/13 08:53:53;;;;;;;26.65;17.10;;;;;;;11.35;82.42;101384.91;7402903;19;20023;-70
2022/10/13 08:56:26;;;;;;;20.20;15.32;;;;;;;11.50;81.95;101378.53;7400044;19;20442;-70
2022/10/13 08:58:56;;;;;;;20.30;15.30;;;;;;;11.63;81.65;101382.72;7399573;19;20364;-69
2022/10/13 09:01:29;;;;;;;21.77;15.38;;;;;;;11.74;81.15;101374.66;7400860;19;20019;-70
2022/10/13 09:04:02;;;;;;;25.08;15.45;;;;;;;11.85;80.79;101382.34;7402727;19;20014;-69
2022/10/13 09:06:34;;;;;;;26.17;14.02;;;;;;;11.96;80.59;101369.06;7403136;19;20040;-69
2022/10/13 09:09:08;;;;;;;22.35;15.10;;;;;;;12.05;80.15;101366.25;7399807;19;20482;-71
2022/10/13 09:11:40;;;;;;;;;;;;;;;12.13;79.83;101367.00;7402891;19;20034;-71
2022/10/13 09:14:11;;;;;;;19.48;14.00;;;;;;;12.20;79.46;101365.97;7398037;19;20324;-70
2022/10/13 09:16:41;;;;;;;21.75;14.50;;;;;;;12.27;79.55;101368.50;7402217;19;20060;-70
2022/10/13 09:19:16;;;;;;;21.25;14.38;;;;;;;12.32;78.99;101361.38;7402193;19;20019;-70
2022/10/13 09:21:45;;;;;;;23.30;15.65;;;;;;;12.33;78.73;101365.75;7403671;19;20023;-70
2022/10/13 09:24:17;;;;;;;21.10;14.40;;;;;;;12.34;78.55;101368.34;7400373;19;20528;-70
2022/10/13 09:26:51;;;;;;;26.02;15.32;;;;;;;12.35;78.41;101361.34;7401326;19;20014;-70
2022/10/13 09:29:26;;;;;;;26.88;14.73;;;;;;;12.35;78.20;101356.94;7400125;19;20022;-70
2022/10/13 09:32:08;;;;;;;23.45;14.45;;;;;;;12.38;78.23;101356.00;7401036;19;20015;-70
2022/10/13 09:34:37;;;;;;;19.83;14.10;;;;;;;12.42;78.01;101357.66;7400644;19;20078;-71
2022/10/13 09:37:07;;;;;;;23.85;15.43;;;;;;;12.47;77.98;101358.47;7400270;19;20549;-70
2022/10/13 09:39:35;;;;;;;21.63;14.23;;;;;;;12.54;77.90;101361.84;7400335;19;20042;-71
2022/10/13 09:42:22;;;;;;;19.73;14.13;;;;;;;12.60;77.58;101367.00;7400072;19;20031;-70
2022/10/13 09:44:58;;;;;;;19.48;14.32;;;;;;;12.63;77.31;101358.16;7399750;19;20502;-69
2022/10/13 09:47:31;;;;;;;21.73;15.63;;;;;;;12.66;77.32;101361.59;7398377;19;20024;-71
2022/10/13 09:50:05;;;;;;;19.80;14.13;;;;;;;12.73;77.44;101356.22;7398392;19;20018;-70
2022/10/13 09:52:33;;;;;;;22.80;15.17;;;;;;;12.77;77.11;101363.13;7402584;19;20017;-70
2022/10/13 09:55:02;;;;;;;20.05;15.43;;;;;;;12.82;76.99;101358.63;7402268;19;20022;-70
2022/10/13 09:57:41;;;;;;;25.38;14.65;;;;;;;12.87;76.88;101365.53;7399749;19;20056;-69
2022/10/13 10:00:32;;;;;;;20.90;14.80;;;;;;;12.92;76.72;101362.81;7398113;19;20051;-68
2022/10/13 10:03:07;;;;;;;22.83;13.65;;;;;;;12.98;76.75;101369.72;7399424;19;20032;-69
2022/10/13 10:05:44;;;;;;;21.52;15.23;;;;;;;13.06;76.80;101369.56;7400620;19;20014;-70
2022/10/13 10:08:18;;;;;;;26.65;14.65;;;;;;;13.12;76.58;101365.00;7400306;19;20006;-70
2022/10/13 10:10:47;;;;;;;25.42;15.40;;;;;;;13.23;76.34;101372.69;7397204;19;20088;-70
2022/10/13 10:13:18;;;;;;;23.10;15.07;;;;;;;13.31;76.03;101368.06;7398991;19;20488;-69
2022/10/13 10:15:54;;;;;;;21.05;14.38;;;;;;;13.39;75.89;101357.38;7399502;19;20025;-69
2022/10/13 10:18:31;;;;;;;25.00;16.15;;;;;;;13.48;75.77;101351.91;7398440;19;20018;-69
2022/10/13 10:21:06;;;;;;;21.88;15.45;;;;;;;13.56;75.35;101356.13;7396534;19;20485;-69
2022/10/13 10:23:44;;;;;;;23.80;15.43;;;;;;;13.65;75.08;101355.91;7397097;19;20106;-69
2022/10/13 10:26:18;;;;;;;22.90;14.35;;;;;;;13.73;74.94;101358.34;7398995;19;20098;-69
2022/10/13 10:29:12;;;;;;;20.58;14.48;;;;;;;13.83;74.46;101350.16;7399085;19;20018;-70
2022/10/13 10:31:59;;;;;;;24.48;14.82;;;;;;;13.93;73.99;101342.00;7396797;19;20414;-68
2022/10/13 10:34:36;;;;;;;27.05;15.82;;;;;;;14.02;73.97;101337.34;7399609;19;20255;-69
2022/10/13 10:37:31;;;;;;;17.17;13.40;;;;;;;14.11;73.55;101335.38;7398435;19;20010;-69
2022/10/13 10:40:11;;;;;;;20.20;14.10;;;;;;;14.19;73.28;101336.00;7397718;19;20092;-68
2022/10/13 10:42:56;;;;;;;21.05;14.38;;;;;;;14.27;73.04;101328.75;7398022;19;20019;-69
2022/10/13 10:45:29;;;;;;;23.90;15.10;;;;;;;14.37;73.10;101328.50;7398007;19;20018;-69
2022/10/13 10:48:08;;;;;;;20.65;13.88;;;;;;;14.45;72.87;101323.88;7397420;19;20011;-72
2022/10/13 10:50:43;;;;;;;21.15;14.13;;;;;;;14.52;72.07;101308.72;7398404;19;20112;-70
2022/10/13 10:53:17;;;;;;;19.10;13.02;;;;;;;14.60;72.02;101312.00;7399347;19;20014;-70
2022/10/13 10:55:49;;;;;;;;;;;;;;;14.66;71.80;101306.59;7398179;19;20019;-70
2022/10/13 10:58:29;;;;;;;24.13;14.90;;;;;;;14.72;71.83;101305.53;7398567;19;19926;-70
2022/10/13 11:01:07;;;;;;;18.52;13.85;;;;;;;14.78;71.40;101308.84;7395641;19;20039;-70
2022/10/13 11:03:44;;;;;;;17.90;13.27;;;;;;;14.83;71.47;101299.00;7395983;19;20070;-71
2022/10/13 11:06:26;;;;;;;20.27;11.93;;;;;;;14.91;71.04;101292.63;7397695;19;20022;-70
2022/10/13 11:08:57;;;;;;;20.00;13.07;;;;;;;14.97;70.78;101295.94;7397708;19;20074;-68
2022/10/13 11:11:40;;;;;;;21.08;13.35;;;;;;;15.06;70.49;101288.63;7398013;19;20079;-70
2022/10/13 11:14:35;;;;;;;19.65;12.75;;;;;;;15.13;70.26;101303.38;7397743;19;20021;-70
2022/10/13 11:17:20;;;;;;;18.88;13.65;;;;;;;15.13;69.82;101293.66;7393374;19;20513;-71
2022/10/13 11:19:51;;;;;;;20.83;13.85;;;;;;;15.21;69.98;101298.69;7396407;19;20475;-68
2022/10/13 11:22:26;;;;;;;18.95;13.20;;;;;;;15.26;69.82;101294.13;7396759;19;20015;-69
2022/10/13 11:25:26;;;;;;;22.30;14.27;;;;;;;15.33;69.53;101284.22;7395730;19;20014;-70
2022/10/13 11:27:54;;;;;;;26.13;15.98;;;;;;;15.40;69.39;101288.38;7394984;19;20426;-69
2022/10/13 11:30:51;;;;;;;24.60;14.95;;;;;;;15.50;69.20;101277.53;7393317;19;20014;-69
2022/10/13 11:33:53;;;;;;;26.52;14.52;;;;;;;15.57;68.41;101271.97;7395522;19;20021;-71
2022/10/13 11:36:58;;;;;;;21.13;13.45;;;;;;;15.64;68.62;101270.84;7395477;19;20022;-71
2022/10/13 11:39:58;;;;;;;25.48;14.38;;;;;;;15.72;68.47;101273.22;7393132;19;20030;-69
2022/10/13 11:43:01;;;;;;;17.27;11.93;;;;;;;15.80;68.13;101262.38;7396444;19;20446;-69